Time;durP1;ratioP1;P1;durP2;ratioP2;P2;SDS_P1;SDS_P2;PMS_P1;PMS_P2;Temp;Humidity;BMP_temperature;BMP_pressure;BME280_temperature;BME280_humidity;BME280_pressure;Samples;Min_cycle;Max_cycle;Signal;HPM_P1;HPM_P2
2022/06/09 00:01:44;;;;;;;;;3.33;3.00;;;;;16.46;100.00;100612.16;6312096;22;45568;-85
2022/06/09 00:04:28;;;;;;;;;3.67;3.67;;;;;16.55;100.00;100630.81;6285697;22;44799;-85
2022/06/09 00:07:05;;;;;;;;;3.33;3.00;;;;;16.47;100.00;100616.59;6285140;22;44958;-85
2022/06/09 00:09:44;;;;;;;;;1.00;1.00;;;;;16.43;100.00;100630.09;6284613;22;47177;-85
2022/06/09 00:12:11;;;;;;;;;1.00;1.00;;;;;16.35;100.00;100628.38;6286150;22;45532;-85
2022/06/09 00:14:38;;;;;;;;;3.00;3.00;;;;;16.42;100.00;100648.00;6285122;22;45479;-85
2022/06/09 00:17:05;;;;;;;;;4.00;4.00;;;;;16.19;100.00;100614.22;6315131;22;45308;-85
2022/06/09 00:19:32;;;;;;;;;2.00;2.00;;;;;16.29;100.00;100633.81;6312116;22;47497;-85
2022/06/09 00:22:04;;;;;;;;;4.33;3.00;;;;;16.30;100.00;100640.03;6286453;22;45349;-85
2022/06/09 00:24:30;;;;;;;;;3.33;3.00;;;;;16.04;100.00;100609.03;6287132;22;45318;-85
2022/06/09 00:26:56;;;;;;;;;2.00;2.00;;;;;16.04;100.00;100610.81;6287115;22;45510;-85
2022/06/09 00:29:24;;;;;;;;;2.67;2.67;;;;;16.16;100.00;100641.09;6310623;22;47119;-85
2022/06/09 00:31:50;;;;;;;;;2.67;2.00;;;;;15.96;100.00;100627.00;6284833;22;45396;-85
2022/06/09 00:34:18;;;;;;;;;3.00;3.00;;;;;16.12;100.00;100650.09;6313512;22;45299;-85
2022/06/09 00:36:45;;;;;;;;;5.00;3.33;;;;;15.90;100.00;100619.03;6284757;22;45286;-85
2022/06/09 00:39:11;;;;;;;;;3.00;2.67;;;;;15.86;100.00;100619.97;6286923;22;47301;-85
2022/06/09 00:41:39;;;;;;;;;2.00;2.00;;;;;16.09;100.00;100658.16;6313501;22;45369;-85
2022/06/09 00:44:23;;;;;;;;;3.67;2.33;;;;;15.89;100.00;100633.31;6284957;22;45464;-85
2022/06/09 00:50:17;;;;;;;;;2.00;2.00;;;;;15.87;100.00;100657.47;6312746;22;45660;-85
2022/06/09 00:52:48;;;;;;;;;4.33;2.33;;;;;15.72;100.00;100626.34;6310662;22;45281;-84
2022/06/09 00:55:20;;;;;;;;;4.33;4.33;;;;;15.93;100.00;100668.13;6284598;22;45423;-85
2022/06/09 00:58:05;;;;;;;;;4.00;2.33;;;;;15.91;100.00;100669.94;6284655;22;45382;-85
2022/06/09 01:00:40;;;;;;;;;2.00;2.00;;;;;15.77;100.00;100645.06;6312489;22;45478;-85
2022/06/09 01:03:10;;;;;;;;;3.00;3.00;;;;;15.82;100.00;100670.03;6311732;22;45301;-84
2022/06/09 01:05:39;;;;;;;;;4.00;2.00;;;;;15.71;100.00;100642.38;6310594;22;45117;-84
2022/06/09 01:08:05;;;;;;;;;3.33;3.00;;;;;15.81;100.00;100678.97;6310519;22;44962;-85
2022/06/09 01:10:32;;;;;;;;;3.67;3.67;;;;;15.58;100.00;100634.44;6284726;22;46969;-84
2022/06/09 01:12:58;;;;;;;;;3.33;2.33;;;;;15.55;100.00;100633.59;6284968;22;45263;-85
2022/06/09 01:15:40;;;;;;;;;2.00;2.00;;;;;15.69;100.00;100641.50;6307374;22;45406;-85
2022/06/09 01:18:13;;;;;;;;;3.33;3.00;;;;;15.79;100.00;100670.06;6311677;22;45425;-84
2022/06/09 01:21:11;;;;;;;;;4.00;4.00;;;;;15.90;100.00;100689.63;6312003;22;45588;-85
2022/06/09 01:23:58;;;;;;;;;4.00;2.00;;;;;15.90;100.00;100688.75;6297450;22;45422;-85
2022/06/09 01:26:53;;;;;;;;;5.33;2.00;;;;;15.59;100.00;100643.38;6310159;22;45409;-85
2022/06/09 01:29:28;;;;;;;;;1.33;1.33;;;;;15.85;100.00;100682.53;6284994;22;44828;-85
2022/06/09 01:32:05;;;;;;;;;3.67;3.67;;;;;15.60;100.00;100662.13;6310749;22;48126;-85
2022/06/09 01:34:41;;;;;;;;;1.33;1.33;;;;;15.85;100.00;100693.25;6284745;22;45185;-85
2022/06/09 01:37:27;;;;;;;;;4.00;3.00;;;;;15.68;100.00;100677.28;6286814;22;44776;-84
2022/06/09 01:39:58;;;;;;;;;6.33;4.00;;;;;15.57;100.00;100664.84;6315361;22;44904;-85
2022/06/09 01:42:36;;;;;;;;;5.00;5.00;;;;;15.57;100.00;100661.25;6312777;22;47214;-85
2022/06/09 01:45:45;;;;;;;;;4.67;4.67;;;;;15.80;100.00;100704.03;6287735;22;45355;-85
2022/06/09 01:48:13;;;;;;;;;3.00;3.00;;;;;15.57;100.00;100674.66;6287222;22;45446;-85
2022/06/09 01:50:54;;;;;;;;;1.33;1.33;;;;;15.74;100.00;100712.13;6285500;22;45378;-86
2022/06/09 01:53:27;;;;;;;;;3.67;3.67;;;;;15.58;100.00;100687.19;6311576;22;46880;-84
2022/06/09 01:55:59;;;;;;;;;5.00;2.67;;;;;15.74;100.00;100717.50;6284393;22;45701;-84
2022/06/09 01:58:29;;;;;;;;;2.33;2.33;;;;;15.74;100.00;100715.69;6284048;22;45459;-84
2022/06/09 02:01:00;;;;;;;;;2.33;2.33;;;;;15.70;100.00;100708.53;6313712;22;45247;-84
2022/06/09 02:03:32;;;;;;;;;4.33;4.00;;;;;15.70;100.00;100705.84;6283024;22;45596;-84
2022/06/09 02:06:00;;;;;;;;;2.33;2.33;;;;;15.68;100.00;100722.88;6310521;22;45281;-85
2022/06/09 02:08:29;;;;;;;;;4.67;4.00;;;;;15.47;100.00;100678.31;6311778;22;45323;-85
2022/06/09 02:10:59;;;;;;;;;5.00;4.00;;;;;15.48;100.00;100682.78;6312145;22;44828;-84
2022/06/09 02:13:29;;;;;;;;;2.67;2.67;;;;;15.47;100.00;100689.94;6285953;22;46893;-84
2022/06/09 02:15:59;;;;;;;;;2.33;2.33;;;;;15.71;100.00;100742.47;6284269;22;45601;-84
2022/06/09 02:18:29;;;;;;;;;3.67;3.00;;;;;15.58;100.00;100717.56;6314059;22;45419;-85
2022/06/09 02:21:10;;;;;;;;;2.00;2.00;;;;;15.46;100.00;100692.63;6312468;22;44920;-85
2022/06/09 02:23:36;;;;;;;;;3.00;3.00;;;;;15.42;100.00;100702.47;6313011;22;45347;-85
2022/06/09 02:26:03;;;;;;;;;2.33;2.00;;;;;15.34;100.00;100699.84;6285765;22;45302;-85
2022/06/09 02:28:29;;;;;;;;;3.00;3.00;;;;;15.34;100.00;100689.13;6286257;22;44884;-85
2022/06/09 02:30:55;;;;;;;;;4.00;3.00;;;;;15.49;100.00;100709.59;6287353;22;45346;-85
2022/06/09 02:33:21;;;;;;;;;4.33;3.33;;;;;15.29;100.00;100685.59;6314315;22;45884;-85
2022/06/09 02:35:50;;;;;;;;;4.33;3.33;;;;;15.59;100.00;100737.19;6312386;22;45411;-85
2022/06/09 02:38:17;;;;;;;;;5.00;4.00;;;;;15.46;100.00;100717.63;6285947;22;45299;-84
2022/06/09 02:40:42;;;;;;;;;3.00;3.00;;;;;15.36;100.00;100711.44;6283228;22;45365;-85
2022/06/09 02:43:08;;;;;;;;;5.67;4.67;;;;;15.27;100.00;100695.44;6282789;22;47111;-85
2022/06/09 02:45:34;;;;;;;;;4.00;2.33;;;;;15.25;100.00;100688.28;6283351;22;45879;-85
2022/06/09 02:48:01;;;;;;;;;3.67;3.00;;;;;15.52;100.00;100732.78;6283057;22;45295;-84
2022/06/09 02:50:27;;;;;;;;;4.00;3.00;;;;;15.21;100.00;100695.47;6312954;22;45418;-85
2022/06/09 02:52:53;;;;;;;;;4.00;4.00;;;;;15.45;100.00;100736.41;6285563;22;46570;-85
2022/06/09 02:55:18;;;;;;;;;3.00;3.00;;;;;15.26;100.00;100717.75;6286075;22;45704;-85
2022/06/09 02:57:44;;;;;;;;;2.00;2.00;;;;;15.19;100.00;100699.94;6317168;22;45288;-85
2022/06/09 03:00:14;;;;;;;;;2.67;2.67;;;;;15.34;100.00;100723.06;6287742;22;45538;-85
2022/06/09 03:02:53;;;;;;;;;5.33;5.33;;;;;15.27;100.00;100721.31;6314720;22;45388;-85
2022/06/09 03:05:18;;;;;;;;;4.00;3.00;;;;;15.17;100.00;100717.81;6315310;22;45305;-85
2022/06/09 03:07:43;;;;;;;;;4.00;3.67;;;;;15.25;100.00;100729.38;6286870;22;45602;-84
2022/06/09 03:10:09;;;;;;;;;5.00;3.00;;;;;15.14;100.00;100718.69;6286411;22;45381;-84
2022/06/09 03:12:35;;;;;;;;;2.00;2.00;;;;;15.25;100.00;100734.75;6284637;22;46818;-83
2022/06/09 03:15:02;;;;;;;;;3.00;3.00;;;;;15.13;100.00;100711.59;6310848;22;45507;-85
2022/06/09 03:17:27;;;;;;;;;2.67;2.67;;;;;15.29;100.00;100759.72;6313177;22;45382;-84
2022/06/09 03:23:16;;;;;;;;;6.67;6.67;;;;;15.18;100.00;100731.19;6312658;22;45749;-85
2022/06/09 03:25:43;;;;;;;;;6.00;4.00;;;;;15.16;100.00;100732.09;6311617;22;45302;-85
2022/06/09 03:28:09;;;;;;;;;4.00;4.00;;;;;15.21;100.00;100741.00;6287299;22;44814;-85
2022/06/09 03:30:35;;;;;;;;;4.67;4.67;;;;;14.94;100.00;100699.16;6313724;22;45346;-85
2022/06/09 03:33:01;;;;;;;;;3.00;3.00;;;;;15.17;100.00;100753.53;6285477;22;46508;-86
2022/06/09 03:35:26;;;;;;;;;8.67;6.67;;;;;15.09;100.00;100741.03;6313787;22;45765;-85
2022/06/09 03:37:52;;;;;;;;;6.00;4.67;;;;;15.14;100.00;100758.00;6314861;22;45325;-84
2022/06/09 03:40:20;;;;;;;;;2.00;2.00;;;;;15.20;100.00;100766.91;6310903;22;45793;-84
2022/06/09 03:42:46;;;;;;;;;3.33;3.33;;;;;14.94;100.00;100726.81;6308876;22;46729;-84
2022/06/09 03:45:12;;;;;;;;;3.67;3.67;;;;;15.02;100.00;100750.03;6311200;22;45287;-85
2022/06/09 03:47:38;;;;;;;;;6.00;4.00;;;;;14.90;100.00;100725.06;6311189;22;45324;-85
2022/06/09 03:50:08;;;;;;;;;4.00;4.00;;;;;14.93;100.00;100730.41;6283206;22;45295;-84
2022/06/09 03:52:34;;;;;;;;;5.67;3.00;;;;;15.17;100.00;100782.13;6284470;22;47563;-84
2022/06/09 03:55:00;;;;;;;;;2.67;2.67;;;;;15.00;100.00;100764.28;6285554;22;45430;-84
2022/06/09 03:57:27;;;;;;;;;3.33;2.00;;;;;14.97;100.00;100744.69;6313144;22;44792;-85
2022/06/09 03:59:52;;;;;;;;;3.67;3.67;;;;;15.10;100.00;100778.53;6285802;22;45434;-85
2022/06/09 04:02:18;;;;;;;;;6.00;4.33;;;;;15.14;100.00;100782.13;6284186;22;47629;-85
2022/06/09 04:04:43;;;;;;;;;5.33;4.00;;;;;15.13;100.00;100778.56;6311933;22;45297;-85
2022/06/09 04:07:11;;;;;;;;;6.33;5.00;;;;;14.90;100.00;100745.59;6312779;22;45247;-85
2022/06/09 04:09:37;;;;;;;;;2.00;2.00;;;;;15.00;100.00;100775.00;6283846;22;45353;-85
2022/06/09 04:12:03;;;;;;;;;5.00;4.00;;;;;15.02;100.00;100766.97;6313456;22;46038;-84
2022/06/09 04:14:29;;;;;;;;;5.67;3.67;;;;;15.15;100.00;100789.28;6314760;22;45293;-85
2022/06/09 04:16:55;;;;;;;;;3.00;2.33;;;;;15.18;100.00;100795.47;6286630;22;44848;-85
2022/06/09 04:19:22;;;;;;;;;4.67;2.33;;;;;14.92;100.00;100760.75;6287227;22;45568;-85
2022/06/09 04:21:48;;;;;;;;;4.00;4.00;;;;;15.06;100.00;100792.84;6286670;22;45635;-85
2022/06/09 04:24:15;;;;;;;;;6.00;4.00;;;;;15.02;100.00;100790.19;6316729;22;45362;-85
2022/06/09 04:26:41;;;;;;;;;5.33;5.33;;;;;15.02;100.00;100766.09;6283883;22;45387;-85
2022/06/09 04:29:12;;;;;;;;;5.33;4.00;;;;;15.34;100.00;100812.38;6312181;22;45364;-86
2022/06/09 04:31:38;;;;;;;;;8.00;6.00;;;;;15.13;100.00;100777.66;6312083;22;45610;-86
2022/06/09 04:34:07;;;;;;;;;6.33;5.00;;;;;15.32;100.00;100787.38;6283611;22;45365;-85
2022/06/09 04:36:33;;;;;;;;;6.67;6.67;;;;;15.46;100.00;100807.88;6284948;22;45322;-85
2022/06/09 04:38:59;;;;;;;;;7.00;5.00;;;;;15.48;100.00;100803.41;6286446;22;45465;-85
2022/06/09 04:41:25;;;;;;;;;6.33;4.67;;;;;15.47;100.00;100790.88;6313876;22;45374;-85
2022/06/09 04:43:50;;;;;;;;;5.00;2.00;;;;;15.59;100.00;100822.97;6314506;22;45344;-85
2022/06/09 04:46:19;;;;;;;;;4.00;4.00;;;;;15.47;100.00;100785.53;6312014;22;45290;-85
2022/06/09 04:48:45;;;;;;;;;6.67;5.67;;;;;15.81;100.00;100839.88;6287171;22;45290;-84
2022/06/09 04:51:14;;;;;;;;;4.67;4.00;;;;;15.76;100.00;100823.81;6314188;22;45291;-84
2022/06/09 04:53:40;;;;;;;;;7.00;4.33;;;;;15.87;100.00;100838.97;6314642;22;45746;-84
2022/06/09 04:56:07;;;;;;;;;7.00;4.00;;;;;15.84;100.00;100806.81;6314063;22;45222;-84
2022/06/09 04:58:32;;;;;;;;;3.67;1.67;;;;;15.95;100.00;100826.38;6316534;22;44866;-84
2022/06/09 05:00:58;;;;;;;;;7.00;4.00;;;;;15.94;100.00;100814.78;6315666;22;46283;-83
2022/06/09 05:03:24;;;;;;;;;5.67;3.00;;;;;16.11;100.00;100830.75;6288050;22;45560;-85
2022/06/09 05:05:50;;;;;;;;;5.00;4.00;;;;;16.38;100.00;100861.88;6288254;22;45283;-85
2022/06/09 05:08:17;;;;;;;;;4.33;3.00;;;;;16.18;100.00;100819.06;6288875;22;45360;-85
2022/06/09 05:10:45;;;;;;;;;4.00;4.00;;;;;16.40;100.00;100845.72;6314423;22;45355;-84
2022/06/09 05:13:12;;;;;;;;;4.67;4.67;;;;;16.47;100.00;100857.31;6286492;22;45429;-85
2022/06/09 05:15:48;;;;;;;;;5.00;4.67;;;;;16.35;100.00;100835.03;6284242;22;45557;-85
2022/06/09 05:18:13;;;;;;;;;5.33;4.00;;;;;16.58;100.00;100869.75;6284816;22;45279;-85
2022/06/09 05:20:39;;;;;;;;;4.00;4.00;;;;;16.54;100.00;100833.09;6284458;22;48034;-85
2022/06/09 05:23:11;;;;;;;;;7.33;4.67;;;;;16.89;100.00;100864.13;6314014;22;44845;-85
2022/06/09 05:25:37;;;;;;;;;6.00;5.00;;;;;16.80;100.00;100845.34;6311136;22;45461;-84
2022/06/09 05:28:03;;;;;;;;;5.33;5.33;;;;;16.81;100.00;100852.56;6310828;22;45604;-84
2022/06/09 05:30:28;;;;;;;;;4.67;4.67;;;;;16.80;100.00;100840.91;6287120;22;47074;-84
2022/06/09 05:32:54;;;;;;;;;6.67;5.67;;;;;17.10;100.00;100862.13;6286451;22;44853;-84
2022/06/09 05:35:21;;;;;;;;;4.00;4.00;;;;;17.24;100.00;100853.91;6315061;22;44817;-84
2022/06/09 05:46:05;;;;;;;;;6.00;4.00;;;;;18.02;100.00;100904.03;6312955;22;45392;-84
2022/06/09 05:48:31;;;;;;;;;4.00;4.00;;;;;17.98;100.00;100881.66;6285243;22;45266;-85
2022/06/09 05:50:57;;;;;;;;;5.67;5.33;;;;;17.92;100.00;100865.59;6285161;22;47127;-85
2022/06/09 05:53:23;;;;;;;;;6.00;6.00;;;;;18.11;100.00;100879.66;6285232;22;45256;-84
2022/06/09 05:55:49;;;;;;;;;6.67;5.33;;;;;18.01;100.00;100886.09;6285114;22;44736;-84
2022/06/09 05:58:19;;;;;;;;;6.00;4.00;;;;;17.84;100.00;100864.81;6312850;22;45479;-84
2022/06/09 06:00:45;;;;;;;;;3.00;3.00;;;;;17.85;100.00;100920.38;6286067;22;45365;-84
2022/06/09 06:03:13;;;;;;;;;4.00;2.67;;;;;17.72;100.00;100924.13;6287526;22;45294;-84
2022/06/09 06:08:23;;;;;;;;;6.00;5.00;;;;;17.24;100.00;100878.97;6316225;22;45122;-87
2022/06/09 06:10:56;;;;;;;;;4.00;4.00;;;;;17.66;100.00;100941.22;6314465;22;47005;-86
2022/06/09 06:13:25;;;;;;;;;6.67;4.67;;;;;17.62;100.00;100899.16;6286153;22;45193;-86
2022/06/09 06:15:51;;;;;;;;;6.33;6.33;;;;;17.80;100.00;100938.38;6289023;22;45005;-86
2022/06/09 06:18:21;;;;;;;;;6.00;5.00;;;;;17.77;100.00;100939.31;6291323;22;45440;-87
2022/06/09 06:20:50;;;;;;;;;5.33;4.00;;;;;17.40;100.00;100906.56;6291973;22;46976;-87
2022/06/09 06:23:18;;;;;;;;;5.67;5.33;;;;;17.62;100.00;100952.94;6289567;22;45399;-86
2022/06/09 06:25:44;;;;;;;;;5.33;4.00;;;;;17.43;100.00;100905.63;6289507;22;45326;-86
2022/06/09 06:28:12;;;;;;;;;4.00;4.00;;;;;17.79;100.00;100905.22;6290350;22;45452;-87
2022/06/09 06:30:37;;;;;;;;;6.00;6.00;;;;;18.11;100.00;100927.22;6290916;22;46998;-86
2022/06/09 06:33:03;;;;;;;;;5.67;5.00;;;;;18.07;100.00;100907.53;6291355;22;45302;-85
2022/06/09 06:35:29;;;;;;;;;6.67;4.00;;;;;18.07;100.00;100942.53;6290068;22;45349;-85
2022/06/09 06:37:54;;;;;;;;;5.67;3.67;;;;;18.00;100.00;100930.06;6318256;22;44732;-86
2022/06/09 06:40:20;;;;;;;;;4.00;4.00;;;;;18.02;100.00;100949.78;6316327;22;46809;-86
2022/06/09 06:42:46;;;;;;;;;4.33;4.00;;;;;17.93;100.00;100950.78;6290208;22;44870;-87
2022/06/09 06:45:14;;;;;;;;;4.67;4.33;;;;;17.69;100.00;100919.66;6317431;22;45286;-87
2022/06/09 06:47:47;;;;;;;;;4.67;4.00;;;;;17.72;100.00;100937.59;6319520;22;45738;-86
2022/06/09 06:50:14;;;;;;;;;4.67;4.67;;;;;17.64;100.00;100947.53;6292843;22;46849;-86
2022/06/09 06:52:40;;;;;;;;;3.67;3.67;;;;;17.72;100.00;100962.69;6319177;22;45341;-86
2022/06/09 06:55:11;;;;;;;;;5.00;4.00;;;;;17.82;100.00;100958.06;6318105;22;45329;-86
2022/06/09 06:57:37;;;;;;;;;6.00;6.00;;;;;17.78;100.00;100970.66;6321820;22;45460;-86
2022/06/09 07:00:05;;;;;;;;;6.00;4.33;;;;;17.70;100.00;100955.53;6290346;22;46981;-86
2022/06/09 07:02:38;;;;;;;;;6.00;4.33;;;;;17.52;100.00;100949.44;6264057;22;45314;-86
2022/06/09 07:22:12;;;;;;;;;;;;;;;;;;;;;
2022/06/09 07:24:39;;;;;;;;;6.00;6.00;;;;;17.74;100.00;100981.50;6317094;22;74900;-86
2022/06/09 07:27:05;;;;;;;;;7.00;5.33;;;;;17.91;100.00;101024.38;6315301;22;45451;-86
2022/06/09 07:30:13;;;;;;;;;6.33;5.33;;;;;17.91;100.00;101027.94;6314680;22;45265;-86
2022/06/09 07:36:14;;;;;;;;;5.00;5.00;;;;;17.97;100.00;101016.22;6317315;22;45441;-86
2022/06/09 07:38:40;;;;;;;;;7.00;6.67;;;;;17.88;100.00;101006.47;6290250;22;45341;-87
2022/06/09 07:41:29;;;;;;;;;9.00;6.00;;;;;17.90;100.00;101014.53;6320024;22;44659;-85
2022/06/09 07:43:55;;;;;;;;;6.00;4.00;;;;;18.07;100.00;101028.66;6318725;22;45351;-86
2022/06/09 07:46:21;;;;;;;;;6.00;4.00;;;;;18.28;100.00;101043.66;6291333;22;48237;-86
2022/06/09 07:48:47;;;;;;;;;8.00;7.00;;;;;18.34;100.00;101046.28;6315259;22;45317;-87
2022/06/09 07:51:29;;;;;;;;;6.67;5.33;;;;;18.23;100.00;101012.31;6315941;22;45450;-87
2022/06/09 07:54:28;;;;;;;;;5.00;3.00;;;;;18.42;100.00;101005.78;6316607;22;45553;-87
2022/06/09 08:11:35;;;;;;;;;6.67;5.00;;;;;19.70;100.00;101053.13;6310822;22;44912;-87
2022/06/09 08:49:00;;;;;;;;;6.00;6.00;;;;;19.94;100.00;101040.13;6316711;22;44859;-87
2022/06/09 08:51:49;;;;;;;;;5.00;5.00;;;;;20.23;100.00;101068.34;6261523;22;45296;-88
2022/06/09 09:42:20;;;;;;;;;;;;;;;;;;;;;
2022/06/09 09:45:56;;;;;;;;;4.67;4.67;;;;;21.68;100.00;101023.44;6153960;22;75833;-87
2022/06/09 09:49:22;;;;;;;;;4.00;4.00;;;;;22.09;100.00;101040.34;6109988;23;44807;-86
2022/06/09 09:59:58;;;;;;;;;4.33;4.33;;;;;22.55;100.00;101079.66;6027452;23;45396;-87
2022/06/09 10:16:57;;;;;;;;;4.00;4.00;;;;;21.88;100.00;101071.63;5987428;23;44825;-87
2022/06/09 10:20:17;;;;;;;;;;;;;;;;;;;;;
2022/06/09 10:55:54;;;;;;;;;3.67;3.67;;;;;23.20;100.00;101118.34;6054657;23;45524;-88
2022/06/09 11:47:19;;;;;;;;;2.33;2.00;;;;;23.52;100.00;101124.53;6327715;22;45362;-89
2022/06/09 11:50:07;;;;;;;;;4.00;3.00;;;;;23.15;100.00;101087.78;6301762;22;44824;-91
2022/06/09 12:03:07;;;;;;;;;3.67;2.00;;;;;23.50;100.00;101126.44;6324428;22;44783;-89
2022/06/09 12:05:52;;;;;;;;;6.67;3.00;;;;;23.21;100.00;101101.16;6264921;22;46883;-91
2022/06/09 12:12:30;;;;;;;;;4.00;3.67;;;;;23.55;100.00;101135.28;6281497;22;44815;-90
2022/06/09 12:15:22;;;;;;;;;4.00;3.00;;;;;23.91;100.00;101137.72;6293404;22;45226;-90
2022/06/09 12:18:23;;;;;;;;;2.33;2.33;;;;;24.09;100.00;101141.63;6266393;22;46005;-91
2022/06/09 12:21:09;;;;;;;;;5.00;3.33;;;;;24.27;100.00;101151.81;6263275;22;44806;-91
2022/06/09 12:34:05;;;;;;;;;2.33;2.33;;;;;24.70;89.66;101146.63;6226663;22;45680;-91
2022/06/09 12:37:20;;;;;;;;;2.33;2.33;;;;;24.72;100.00;101145.66;6199310;22;45353;-92
2022/06/09 13:39:33;;;;;;;;;2.33;2.33;;;;;26.27;66.56;101154.69;6303223;22;45153;-90
2022/06/09 13:45:53;;;;;;;;;3.00;2.00;;;;;27.59;62.80;101160.34;6167131;23;45431;-89
2022/06/09 13:52:07;;;;;;;;;1.00;1.00;;;;;27.90;81.72;101184.31;6191115;23;45229;-90
2022/06/09 13:55:05;;;;;;;;;2.50;1.25;;;;;26.83;64.66;101155.81;6191176;23;44827;-90
2022/06/09 13:57:48;;;;;;;;;2.25;2.25;;;;;26.31;74.50;101185.44;6167096;23;45831;-89
2022/06/09 14:00:57;;;;;;;;;1.00;1.00;;;;;26.62;53.77;101179.53;6162200;23;45441;-90
2022/06/09 14:03:53;;;;;;;;;1.00;1.00;;;;;28.20;47.46;101180.94;6111501;23;46316;-90
2022/06/09 14:06:33;;;;;;;;;1.75;1.75;;;;;30.10;66.08;101141.91;6108677;23;45343;-89
2022/06/09 14:09:05;;;;;;;;;1.00;1.00;;;;;31.20;44.23;101134.00;6075800;23;45275;-90
2022/06/09 14:21:38;;;;;;;;;2.25;0.25;;;;;35.97;46.11;101136.34;5918633;24;45480;-90
2022/06/09 14:24:18;;;;;;;;;1.25;0.25;;;;;35.02;40.67;101158.19;6040247;23;44827;-87
2022/06/09 14:27:02;;;;;;;;;0.50;0.50;;;;;34.20;38.66;101163.88;6017152;23;46736;-88
2022/06/09 14:30:04;;;;;;;;;1.00;1.00;;;;;32.40;39.56;101189.13;6019669;23;45646;-89
2022/06/09 14:33:00;;;;;;;;;;;;;;;;;;;;;
2022/06/09 14:36:42;;;;;;;;;;;;;;;;;;;;;
2022/06/09 14:39:47;;;;;;;;;1.00;1.00;;;;;32.33;47.62;101175.91;6046336;23;45346;-88
2022/06/09 14:46:45;;;;;;;;;0.50;0.50;;;;;32.85;52.07;101186.81;6046811;23;45279;-87
2022/06/09 14:53:01;;;;;;;;;1.25;0.25;;;;;36.07;26.72;101163.22;6072773;23;45465;-87
2022/06/09 14:56:03;;;;;;;;;1.00;0.00;;;;;36.64;33.31;101189.63;6042361;23;45340;-89
2022/06/09 14:58:29;;;;;;;;;2.00;1.00;;;;;37.11;37.92;101201.13;6051629;23;44890;-88
2022/06/09 15:01:47;;;;;;;;;0.00;0.00;;;;;38.01;44.27;101197.34;6077494;23;44978;-89
2022/06/09 15:04:24;;;;;;;;;0.00;0.00;;;;;37.03;22.45;101178.72;6025357;23;45279;-88
2022/06/09 15:07:10;;;;;;;;;0.00;0.00;;;;;35.65;34.56;101191.66;6081917;23;45195;-88
2022/06/09 15:09:50;;;;;;;;;1.00;0.00;;;;;33.48;34.69;101207.00;6124007;23;44736;-87
2022/06/09 15:12:20;;;;;;;;;1.00;1.00;;;;;31.12;39.99;101177.59;6146568;23;44837;-88
2022/06/09 15:15:38;;;;;;;;;0.00;0.00;;;;;31.37;41.57;101201.59;6171296;22;45473;-89
2022/06/09 15:18:50;;;;;;;;;;;;;;;;;;;;;
2022/06/09 15:22:09;;;;;;;;;0.75;0.75;;;;;38.47;38.91;101192.09;6327040;22;68885;-91
2022/06/09 15:25:41;;;;;;;;;;;;;;;;;;;;;
2022/06/09 15:29:03;;;;;;;;;1.00;1.00;;;;;37.73;40.36;101209.34;6219556;22;74495;-88
2022/06/09 15:31:32;;;;;;;;;0.75;0.00;;;;;38.13;34.43;101206.44;6326139;22;44746;-88
2022/06/09 15:34:21;;;;;;;;;1.00;1.00;;;;;40.41;44.30;101182.81;6298147;22;45436;-88
2022/06/09 16:31:34;;;;;;;;;3.00;2.67;;;;;27.51;49.71;101242.69;6297166;22;45299;-89
2022/06/09 16:34:12;;;;;;;;;1.00;1.00;;;;;26.89;45.46;101220.16;6264288;22;45267;-87
2022/06/09 16:36:50;;;;;;;;;1.25;1.25;;;;;26.48;42.03;101234.69;6259229;22;45698;-88
2022/06/09 16:39:41;;;;;;;;;3.33;3.33;;;;;26.09;51.49;101232.72;6287051;22;45243;-89
2022/06/09 16:42:14;;;;;;;;;2.00;2.00;;;;;25.89;50.20;101219.03;6283554;22;45476;-87
2022/06/09 16:44:40;;;;;;;;;3.33;2.67;;;;;25.72;50.40;101206.13;6258156;22;45352;-87
2022/06/09 16:47:06;;;;;;;;;3.00;3.00;;;;;25.79;50.79;101237.59;6259977;22;46906;-87
2022/06/09 16:50:14;;;;;;;;;;;;;;;;;;;;;
2022/06/09 16:52:40;;;;;;;;;2.33;2.33;;;;;25.10;53.67;101213.13;6283049;22;68351;-87
2022/06/09 16:55:07;;;;;;;;;3.67;2.67;;;;;24.70;52.45;101203.75;6288327;22;45370;-86
2022/06/09 16:57:33;;;;;;;;;52.00;43.00;;;;;24.71;55.27;101214.59;6289221;22;45342;-87
2022/06/09 16:59:59;;;;;;;;;2.25;2.25;;;;;24.61;56.25;101218.59;6257712;22;45666;-87
2022/06/09 17:02:27;;;;;;;;;6.00;5.00;;;;;24.41;54.70;101193.94;6260210;22;45294;-86
2022/06/09 17:04:54;;;;;;;;;5.00;5.00;;;;;24.71;55.17;101236.34;6286200;22;46795;-85
2022/06/09 17:07:23;;;;;;;;;3.33;3.00;;;;;24.53;55.05;101191.69;6289770;22;45253;-85
2022/06/09 17:09:50;;;;;;;;;2.00;2.00;;;;;24.73;54.92;101214.53;6263986;22;45771;-86
2022/06/09 17:12:17;;;;;;;;;2.00;2.00;;;;;24.84;46.81;101231.31;6288148;22;45221;-85
2022/06/09 17:14:45;;;;;;;;;3.33;3.33;;;;;24.82;48.34;101224.19;6289962;22;45185;-86
2022/06/09 17:17:11;;;;;;;;;2.33;2.00;;;;;24.79;53.59;101241.50;6260553;22;47173;-87
2022/06/09 17:19:38;;;;;;;;;3.67;3.67;;;;;24.75;53.49;101246.16;6260408;22;45427;-87
2022/06/09 17:22:05;;;;;;;;;10.33;10.33;;;;;24.60;52.78;101244.00;6260569;22;45232;-87
2022/06/09 17:24:34;;;;;;;;;6.33;6.33;;;;;24.45;52.85;101245.41;6238062;22;45508;-85
2022/06/09 17:30:23;;;;;;;;;2.00;2.00;;;;;24.02;54.13;101263.22;6290064;22;44622;-86
2022/06/09 17:32:49;;;;;;;;;2.67;2.67;;;;;23.65;50.95;101225.47;6262424;22;45159;-87
2022/06/09 17:35:14;;;;;;;;;3.00;3.00;;;;;23.68;57.18;101269.72;6266733;22;45038;-85
2022/06/09 17:37:46;;;;;;;;;2.33;2.33;;;;;23.55;48.02;101271.03;6266624;22;46960;-85
2022/06/09 17:40:53;;;;;;;;;5.67;5.67;;;;;23.40;54.07;101276.97;6266830;22;44691;-86
2022/06/09 17:43:18;;;;;;;;;2.67;2.67;;;;;23.25;57.47;101278.31;6266110;22;45321;-85
2022/06/09 17:45:44;;;;;;;;;4.33;4.33;;;;;23.13;55.43;101274.16;6264454;22;44736;-85
2022/06/09 17:48:14;;;;;;;;;4.00;1.67;;;;;23.12;57.08;101288.63;6264814;22;47153;-86
2022/06/09 17:50:42;;;;;;;;;3.67;3.67;;;;;22.95;59.73;101264.69;6236100;22;45489;-86
2022/06/09 17:53:10;;;;;;;;;3.67;3.67;;;;;22.89;56.45;101287.47;6288021;22;45355;-87
2022/06/09 17:55:37;;;;;;;;;4.75;2.00;;;;;22.52;58.04;101252.34;6286657;22;45249;-86
2022/06/09 17:58:05;;;;;;;;;3.00;2.75;;;;;22.61;51.56;101292.75;6234557;22;47085;-86
2022/06/09 18:00:38;;;;;;;;;3.00;3.00;;;;;22.48;54.08;101292.22;6288425;22;45315;-86
2022/06/09 18:03:04;;;;;;;;;3.00;3.00;;;;;22.40;59.38;101298.75;6260026;22;44748;-86
2022/06/09 18:05:30;;;;;;;;;3.33;3.00;;;;;22.31;59.23;101292.63;6268035;22;45422;-86
2022/06/09 18:08:04;;;;;;;;;4.67;3.00;;;;;22.28;57.07;101287.31;6286783;22;46821;-86
2022/06/09 18:10:35;;;;;;;;;3.67;3.67;;;;;22.30;57.92;101289.94;6289564;22;45258;-86
2022/06/09 18:13:01;;;;;;;;;6.33;5.33;;;;;22.00;54.06;101268.13;6262225;22;45389;-87
2022/06/09 18:15:32;;;;;;;;;5.00;3.33;;;;;22.04;61.42;101288.78;6289578;22;45233;-87
2022/06/09 18:17:59;;;;;;;;;3.00;3.00;;;;;22.06;57.56;101303.19;6289196;22;45563;-87
2022/06/09 18:20:27;;;;;;;;;3.67;3.67;;;;;22.08;54.90;101317.56;6287671;22;44776;-87
2022/06/09 18:22:53;;;;;;;;;3.00;2.00;;;;;22.01;58.00;101317.75;6289906;22;44703;-87
2022/06/09 18:25:20;;;;;;;;;2.00;2.00;;;;;21.92;57.58;101327.00;6288387;22;45290;-87
2022/06/09 18:27:46;;;;;;;;;1.67;1.67;;;;;21.82;56.15;101325.44;6289592;22;46169;-87
2022/06/09 18:33:35;;;;;;;;;3.00;3.00;;;;;21.77;64.00;101314.69;6290610;22;45254;-85
2022/06/09 18:36:01;;;;;;;;;3.67;2.00;;;;;21.76;63.78;101316.50;6286275;22;44848;-86
2022/06/09 18:38:27;;;;;;;;;5.00;5.00;;;;;21.82;64.86;101320.03;6284847;22;47017;-87
2022/06/09 18:40:58;;;;;;;;;4.33;4.00;;;;;21.80;62.78;101308.34;6288271;22;45183;-87
2022/06/09 18:43:47;;;;;;;;;3.67;3.67;;;;;21.94;64.34;101306.19;6293027;22;45427;-86
2022/06/09 18:46:13;;;;;;;;;3.00;3.00;;;;;21.98;63.97;101316.03;6289236;22;44815;-87
2022/06/09 18:48:39;;;;;;;;;5.00;4.00;;;;;22.02;65.34;101319.56;6286392;22;47459;-86
2022/06/09 18:51:05;;;;;;;;;4.33;3.00;;;;;21.84;59.75;101307.34;6285552;22;45327;-86